Time;durP1;ratioP1;P1;durP2;ratioP2;P2;SDS_P1;SDS_P2;PMS_P1;PMS_P2;Temp;Humidity;BMP_temperature;BMP_pressure;BME280_temperature;BME280_humidity;BME280_pressure;Samples;Min_cycle;Max_cycle;Signal;HPM_P1;HPM_P2
2023/01/05 00:02:09;;;;;;;0.00;0.00;;;;;;;10.84;87.14;95911.22;4354976;32;20188;-59
2023/01/05 00:04:34;;;;;;;0.00;0.00;;;;;;;10.82;87.25;95913.34;4361732;32;20185;-59
2023/01/05 00:06:59;;;;;;;0.00;0.00;;;;;;;10.89;87.07;95902.41;4366694;32;20205;-59
2023/01/05 00:09:24;;;;;;;0.00;0.00;;;;;;;10.89;86.84;95913.03;4385783;32;20193;-59
2023/01/05 00:22:53;;;;;;;0.00;0.00;;;;;;;10.89;86.60;95899.75;4352153;32;20268;-59
2023/01/05 00:25:27;;;;;;;0.00;0.00;;;;;;;10.90;86.49;95894.19;4358456;32;20201;-59
2023/01/05 00:27:53;;;;;;;0.10;0.10;;;;;;;10.94;86.52;95883.78;4361086;32;20192;-59
2023/01/05 00:30:21;;;;;;;0.20;0.20;;;;;;;10.87;86.33;95884.13;4365166;32;20207;-59
2023/01/05 00:32:49;;;;;;;0.10;0.10;;;;;;;10.89;86.23;95875.88;4363061;32;20233;-59
2023/01/05 00:35:15;;;;;;;0.00;0.00;;;;;;;10.75;86.42;95878.41;4364373;32;20209;-60
2023/01/05 00:37:41;;;;;;;0.13;0.13;;;;;;;10.88;86.45;95869.78;4357882;32;20286;-60
2023/01/05 00:40:10;;;;;;;0.00;0.00;;;;;;;10.87;86.55;95870.06;4377259;32;20196;-60
2023/01/05 00:42:36;;;;;;;0.00;0.00;;;;;;;10.85;86.48;95870.34;4365491;32;20217;-63
2023/01/05 00:45:02;;;;;;;0.13;0.10;;;;;;;10.96;86.24;95866.53;4359147;32;20243;-59
2023/01/05 00:47:27;;;;;;;0.00;0.00;;;;;;;10.86;86.37;95866.59;4366825;32;20300;-59
2023/01/05 00:49:53;;;;;;;0.00;0.00;;;;;;;10.94;86.22;95863.34;4368165;32;20208;-60
2023/01/05 00:52:18;;;;;;;0.00;0.00;;;;;;;10.90;86.11;95862.31;4356540;32;20224;-59
2023/01/05 00:54:43;;;;;;;0.10;0.10;;;;;;;11.04;85.55;95862.44;4350951;32;20202;-59
2023/01/05 00:57:13;;;;;;;0.13;0.13;;;;;;;10.97;85.84;95873.41;4371004;32;20185;-60
2023/01/05 00:59:39;;;;;;;0.00;0.00;;;;;;;10.96;85.62;95868.38;4369045;32;20215;-59
2023/01/05 01:02:04;;;;;;;0.00;0.00;;;;;;;10.92;85.99;95860.19;4359599;32;20196;-59
2023/01/05 01:04:31;;;;;;;0.00;0.00;;;;;;;10.88;85.90;95853.84;4377848;32;20196;-60
2023/01/05 01:06:57;;;;;;;0.00;0.00;;;;;;;11.01;85.65;95845.19;4363445;32;20288;-59
2023/01/05 01:09:25;;;;;;;0.13;0.13;;;;;;;11.03;84.99;95856.34;4361683;32;20181;-59
2023/01/05 01:11:50;;;;;;;0.10;0.10;;;;;;;10.98;85.26;95876.84;4359064;32;20228;-60
2023/01/05 01:14:16;;;;;;;0.13;0.10;;;;;;;10.98;85.30;95869.69;4371906;32;20284;-59
2023/01/05 01:16:42;;;;;;;0.00;0.00;;;;;;;10.99;84.81;95860.66;4370792;32;20270;-59
2023/01/05 01:19:13;;;;;;;0.40;0.10;;;;;;;11.05;85.32;95857.91;4366621;32;20185;-60
2023/01/05 01:21:38;;;;;;;0.00;0.00;;;;;;;11.13;84.62;95859.97;4365638;32;20184;-59
2023/01/05 01:24:03;;;;;;;0.00;0.00;;;;;;;11.14;84.57;95866.84;4365757;32;20185;-60
2023/01/05 01:26:29;;;;;;;0.00;0.00;;;;;;;11.13;84.47;95859.97;4369418;32;20222;-59
2023/01/05 01:28:57;;;;;;;0.00;0.00;;;;;;;11.01;84.73;95858.47;4363806;32;20193;-60
2023/01/05 01:31:23;;;;;;;0.00;0.00;;;;;;;11.08;84.73;95858.16;4365855;32;20216;-59
2023/01/05 01:33:48;;;;;;;0.00;0.00;;;;;;;11.06;84.74;95860.28;4363801;32;20200;-60
2023/01/05 01:36:13;;;;;;;0.00;0.00;;;;;;;11.00;85.21;95862.22;4367634;32;20241;-60
2023/01/05 01:38:39;;;;;;;0.20;0.13;;;;;;;11.01;85.19;95850.50;4366769;32;20197;-59
2023/01/05 01:41:04;;;;;;;0.00;0.00;;;;;;;11.06;85.04;95840.91;4367150;32;20201;-59
2023/01/05 01:43:59;;;;;;;0.07;0.07;;;;;;;11.01;85.29;95850.50;4353593;32;20253;-59
2023/01/05 01:46:26;;;;;;;0.00;0.00;;;;;;;10.91;85.65;95857.81;4342220;32;20243;-60
2023/01/05 01:48:57;;;;;;;0.13;0.10;;;;;;;10.94;86.45;95855.37;4359010;32;20216;-60
2023/01/05 01:51:31;;;;;;;0.00;0.00;;;;;;;10.88;85.82;95868.97;4374033;32;20184;-60
2023/01/05 01:53:59;;;;;;;0.00;0.00;;;;;;;11.01;86.09;95863.78;4373361;32;20327;-60
2023/01/05 01:56:29;;;;;;;0.00;0.00;;;;;;;11.00;85.55;95851.62;4369902;32;20189;-59
2023/01/05 01:58:54;;;;;;;0.00;0.00;;;;;;;10.89;86.13;95842.16;4363605;32;20190;-59
2023/01/05 02:01:20;;;;;;;0.00;0.00;;;;;;;10.90;86.16;95827.03;4366141;32;20254;-60
2023/01/05 02:03:46;;;;;;;0.00;0.00;;;;;;;11.01;85.72;95837.25;4363227;32;20218;-59
2023/01/05 02:06:12;;;;;;;0.10;0.10;;;;;;;11.00;85.85;95824.28;4376395;32;20201;-59
2023/01/05 02:08:38;;;;;;;0.13;0.10;;;;;;;11.01;85.67;95844.44;4362561;32;20246;-60
2023/01/05 02:11:21;;;;;;;0.00;0.00;;;;;;;10.98;85.71;95840.47;4374065;32;20251;-59
2023/01/05 02:14:02;;;;;;;0.00;0.00;;;;;;;10.99;86.39;95833.31;4361924;32;20193;-59
2023/01/05 02:17:00;;;;;;;0.00;0.00;;;;;;;11.08;86.62;95817.53;4362348;32;20332;-59
2023/01/05 02:19:57;;;;;;;0.10;0.10;;;;;;;11.00;88.23;95797.72;4375883;32;20192;-59
2023/01/05 02:23:03;;;;;;;0.00;0.00;;;;;;;10.97;89.10;95804.41;4366286;32;20188;-60
2023/01/05 02:26:11;;;;;;;0.00;0.00;;;;;;;10.93;88.62;95791.97;4334851;32;20193;-60
2023/01/05 02:29:33;;;;;;;0.00;0.00;;;;;;;10.87;88.44;95766.53;4338818;32;20193;-59
2023/01/05 02:32:20;;;;;;;0.20;0.20;;;;;;;10.97;87.98;95769.09;4346565;32;20189;-59
2023/01/05 02:34:58;;;;;;;0.20;0.20;;;;;;;10.99;87.91;95773.03;4370568;32;20238;-59
2023/01/05 02:37:38;;;;;;;0.10;0.10;;;;;;;10.98;87.74;95760.84;4358004;32;20205;-59
2023/01/05 02:40:20;;;;;;;0.00;0.00;;;;;;;11.05;87.10;95757.81;4363727;32;20228;-60
2023/01/05 02:42:50;;;;;;;0.20;0.20;;;;;;;11.01;87.16;95746.97;4359264;32;20206;-59
2023/01/05 02:45:16;;;;;;;0.00;0.00;;;;;;;11.09;87.09;95745.56;4364110;32;20246;-60
2023/01/05 02:47:43;;;;;;;0.10;0.10;;;;;;;10.98;87.66;95736.97;4352258;32;20193;-60
2023/01/05 02:50:25;;;;;;;0.00;0.00;;;;;;;11.01;87.67;95741.66;4360841;32;20185;-60
2023/01/05 02:53:03;;;;;;;0.00;0.00;;;;;;;11.09;87.79;95731.50;4374262;32;20247;-59
2023/01/05 02:55:40;;;;;;;0.10;0.10;;;;;;;10.94;89.32;95741.25;4368722;32;20208;-59
2023/01/05 02:58:21;;;;;;;0.10;0.10;;;;;;;10.86;90.39;95752.47;4354780;32;20193;-60
2023/01/05 03:00:53;;;;;;;0.00;0.00;;;;;;;10.87;90.60;95753.28;4359231;32;20181;-59
2023/01/05 03:03:35;;;;;;;0.43;0.10;;;;;;;10.83;90.75;95761.00;4361819;32;20252;-59
2023/01/05 03:06:18;;;;;;;0.00;0.00;;;;;;;10.75;91.64;95753.69;4369550;32;20197;-60
2023/01/05 03:08:50;;;;;;;0.13;0.13;;;;;;;10.78;91.95;95747.81;4363902;32;20185;-60
2023/01/05 03:14:25;;;;;;;0.00;0.00;;;;;;;10.64;92.64;95749.56;4355859;32;20274;-59
2023/01/05 03:16:55;;;;;;;0.07;0.07;;;;;;;10.59;92.48;95736.38;4326652;32;20232;-60
2023/01/05 03:19:38;;;;;;;0.10;0.10;;;;;;;10.52;94.03;95735.91;4333163;32;20240;-59
2023/01/05 03:36:29;;;;;;;0.00;0.00;;;;;;;10.39;95.12;95733.94;4326844;32;20341;-59
2023/01/05 03:38:59;;;;;;;0.00;0.00;;;;;;;10.38;94.95;95717.22;4334291;32;20222;-59
2023/01/05 03:41:26;;;;;;;0.17;0.07;;;;;;;10.50;94.68;95724.78;4340540;32;20245;-60
2023/01/05 03:43:52;;;;;;;0.00;0.00;;;;;;;10.45;94.89;95712.38;4329088;32;20241;-59
2023/01/05 03:46:20;;;;;;;0.00;0.00;;;;;;;10.49;94.31;95717.91;4337753;32;20255;-59
2023/01/05 03:48:47;;;;;;;0.00;0.00;;;;;;;10.45;94.23;95714.22;4346865;32;20254;-59
2023/01/05 03:51:16;;;;;;;0.20;0.20;;;;;;;10.51;93.85;95716.56;4336334;32;20190;-59
2023/01/05 03:53:42;;;;;;;0.00;0.00;;;;;;;10.54;93.20;95707.25;4331840;32;20198;-59
2023/01/05 03:56:08;;;;;;;0.00;0.00;;;;;;;10.62;92.81;95714.56;4332076;32;20193;-59
2023/01/05 03:58:33;;;;;;;0.00;0.00;;;;;;;10.56;92.64;95702.44;4342336;32;20248;-59
2023/01/05 04:00:58;;;;;;;0.00;0.00;;;;;;;10.64;92.61;95709.75;4323709;32;20178;-59
2023/01/05 04:03:24;;;;;;;0.00;0.00;;;;;;;10.63;92.62;95697.56;4329195;32;20201;-59
2023/01/05 04:05:49;;;;;;;0.00;0.00;;;;;;;10.68;92.46;95700.16;4335944;32;20197;-59
2023/01/05 04:08:15;;;;;;;0.00;0.00;;;;;;;10.63;92.13;95687.75;4333879;32;20193;-59
2023/01/05 04:10:41;;;;;;;0.00;0.00;;;;;;;10.64;91.97;95693.84;4341452;32;20251;-59
2023/01/05 04:13:06;;;;;;;0.00;0.00;;;;;;;10.71;91.61;95680.25;4325811;32;20190;-59
2023/01/05 04:15:31;;;;;;;0.00;0.00;;;;;;;10.74;91.38;95685.78;4339162;32;20228;-59
2023/01/05 04:17:57;;;;;;;0.00;0.00;;;;;;;10.71;91.24;95683.69;4362595;32;20219;-59
2023/01/05 04:20:22;;;;;;;0.13;0.13;;;;;;;10.83;90.64;95685.91;4354159;32;20193;-59
2023/01/05 04:22:47;;;;;;;0.00;0.00;;;;;;;10.85;90.34;95679.25;4365412;32;20197;-59
2023/01/05 04:25:13;;;;;;;0.10;0.10;;;;;;;10.90;89.98;95692.44;4361924;32;20237;-59
2023/01/05 04:27:38;;;;;;;0.30;0.20;;;;;;;10.87;89.83;95700.19;4362200;32;20199;-59
2023/01/05 04:30:04;;;;;;;0.37;0.07;;;;;;;10.85;90.10;95707.66;4375113;32;20272;-59
2023/01/05 04:32:29;;;;;;;0.00;0.00;;;;;;;10.94;89.08;95714.69;4367221;32;20193;-60
2023/01/05 04:34:54;;;;;;;0.00;0.00;;;;;;;11.08;88.32;95706.81;4358465;32;20190;-60
2023/01/05 04:37:20;;;;;;;0.07;0.07;;;;;;;11.03;88.44;95728.91;4359168;32;20220;-59
2023/01/05 04:39:45;;;;;;;0.00;0.00;;;;;;;10.95;88.64;95737.53;4367194;32;20200;-59
2023/01/05 04:42:10;;;;;;;0.00;0.00;;;;;;;10.96;88.34;95723.19;4370743;32;20234;-59
2023/01/05 04:44:36;;;;;;;0.00;0.00;;;;;;;11.02;88.37;95721.22;4370839;32;20259;-59
2023/01/05 04:47:01;;;;;;;0.00;0.00;;;;;;;11.06;88.08;95711.63;4367633;32;20206;-59
2023/01/05 04:49:26;;;;;;;0.00;0.00;;;;;;;11.02;87.85;95729.97;4361634;32;20292;-60
2023/01/05 04:51:52;;;;;;;0.10;0.10;;;;;;;11.10;87.58;95722.47;4358993;32;20200;-60
2023/01/05 04:54:17;;;;;;;0.23;0.23;;;;;;;11.04;87.65;95711.09;4351823;32;20199;-59
2023/01/05 04:56:43;;;;;;;0.00;0.00;;;;;;;11.13;87.36;95716.56;4360724;32;20198;-60
2023/01/05 04:59:08;;;;;;;0.00;0.00;;;;;;;11.06;87.56;95716.13;4361159;32;20181;-59
2023/01/05 05:01:33;;;;;;;0.00;0.00;;;;;;;11.01;87.76;95701.09;4381619;32;20196;-59
2023/01/05 05:04:03;;;;;;;0.20;0.20;;;;;;;11.17;87.37;95709.63;4364364;32;20185;-60
2023/01/05 05:06:28;;;;;;;0.10;0.10;;;;;;;11.06;87.58;95702.84;4370564;32;20199;-60
2023/01/05 05:08:54;;;;;;;0.10;0.10;;;;;;;11.06;87.37;95705.50;4362076;32;20220;-60
2023/01/05 05:11:19;;;;;;;0.00;0.00;;;;;;;11.09;87.62;95704.94;4359981;32;20243;-60
2023/01/05 05:13:45;;;;;;;0.00;0.00;;;;;;;11.04;87.30;95700.50;4365222;32;20208;-60
2023/01/05 05:16:10;;;;;;;1.60;0.27;;;;;;;11.14;87.08;95699.56;4358449;32;20236;-59
2023/01/05 05:18:36;;;;;;;0.00;0.00;;;;;;;11.15;87.45;95701.16;4375069;32;20208;-59
2023/01/05 05:21:01;;;;;;;1.33;0.30;;;;;;;11.19;87.08;95702.16;4368220;32;20196;-59
2023/01/05 05:23:26;;;;;;;0.30;0.30;;;;;;;11.19;86.86;95704.81;4373643;32;20276;-59
2023/01/05 05:25:52;;;;;;;0.00;0.00;;;;;;;11.13;86.91;95701.44;4370261;32;20223;-59
2023/01/05 05:28:19;;;;;;;0.37;0.03;;;;;;;11.09;86.91;95713.69;4372115;32;20197;-59
2023/01/05 05:30:44;;;;;;;0.00;0.00;;;;;;;11.03;86.80;95710.31;4372948;32;20211;-59
2023/01/05 05:33:09;;;;;;;0.00;0.00;;;;;;;11.08;87.44;95698.84;4368612;32;20193;-60
2023/01/05 05:35:34;;;;;;;0.10;0.10;;;;;;;11.08;87.21;95698.06;4374580;32;20206;-59
2023/01/05 05:38:04;;;;;;;0.00;0.00;;;;;;;11.23;86.24;95697.84;4363238;32;20181;-59
2023/01/05 05:40:29;;;;;;;0.10;0.10;;;;;;;11.05;86.72;95688.00;4362490;32;20189;-59
2023/01/05 05:42:54;;;;;;;0.30;0.30;;;;;;;11.02;87.02;95707.94;4355472;32;20223;-59
2023/01/05 05:45:20;;;;;;;0.00;0.00;;;;;;;11.13;86.77;95705.97;4358833;32;20213;-60
2023/01/05 05:47:45;;;;;;;0.00;0.00;;;;;;;11.05;86.98;95693.31;4356518;32;20201;-59
2023/01/05 05:50:11;;;;;;;1.03;0.30;;;;;;;11.13;86.84;95713.91;4361727;32;20259;-59
2023/01/05 05:52:36;;;;;;;0.00;0.00;;;;;;;11.10;86.56;95711.84;4369502;32;20264;-59
2023/01/05 05:55:01;;;;;;;0.13;0.13;;;;;;;11.02;87.08;95722.00;4374737;32;20203;-60
2023/01/05 05:57:27;;;;;;;0.00;0.00;;;;;;;11.08;87.21;95709.47;4356731;32;20276;-59
2023/01/05 05:59:52;;;;;;;0.20;0.20;;;;;;;11.06;87.23;95722.22;4370529;32;20230;-59
2023/01/05 06:02:18;;;;;;;0.00;0.00;;;;;;;11.17;86.92;95725.56;4385996;32;20212;-60
2023/01/05 06:04:46;;;;;;;0.00;0.00;;;;;;;11.16;86.71;95726.63;4367745;32;20189;-59
2023/01/05 06:07:11;;;;;;;0.20;0.20;;;;;;;11.20;86.44;95712.50;4365647;32;20232;-59
2023/01/05 06:09:40;;;;;;;0.03;0.00;;;;;;;11.11;86.71;95719.53;4379999;32;20193;-65
2023/01/05 06:12:05;;;;;;;3.10;0.37;;;;;;;11.13;86.80;95721.88;4370750;32;20219;-59
2023/01/05 06:14:31;;;;;;;0.00;0.00;;;;;;;11.12;86.88;95728.28;4359754;32;20251;-59
2023/01/05 06:16:56;;;;;;;0.00;0.00;;;;;;;11.14;86.91;95748.16;4366785;32;21928;-60
2023/01/05 06:19:21;;;;;;;0.00;0.00;;;;;;;11.16;86.85;95753.97;4364820;32;20238;-60
2023/01/05 06:21:46;;;;;;;0.10;0.10;;;;;;;11.11;86.86;95740.75;4367147;32;20189;-59
2023/01/05 06:24:12;;;;;;;0.00;0.00;;;;;;;11.20;86.88;95738.25;4359798;32;20189;-59
2023/01/05 06:26:37;;;;;;;0.03;0.03;;;;;;;11.24;86.37;95741.91;4367775;32;20212;-61
2023/01/05 06:29:02;;;;;;;0.00;0.00;;;;;;;11.15;86.77;95748.94;4368801;32;20185;-60
2023/01/05 06:31:28;;;;;;;0.03;0.03;;;;;;;11.18;86.76;95745.72;4361486;32;20215;-59
2023/01/05 06:33:53;;;;;;;0.00;0.00;;;;;;;11.18;87.05;95745.72;4362040;32;20228;-59
2023/01/05 06:36:18;;;;;;;0.00;0.00;;;;;;;11.13;86.87;95743.13;4361044;32;20239;-59
2023/01/05 06:38:44;;;;;;;0.00;0.00;;;;;;;11.21;86.60;95763.75;4355640;32;20185;-59
2023/01/05 06:41:09;;;;;;;4.33;0.57;;;;;;;11.23;87.44;95756.25;4370218;32;20185;-59
2023/01/05 06:43:34;;;;;;;4.63;0.30;;;;;;;11.23;86.95;95750.94;4375051;32;20211;-59
2023/01/05 06:46:01;;;;;;;0.00;0.00;;;;;;;11.15;87.25;95749.75;4363008;32;20189;-59
2023/01/05 06:48:26;;;;;;;0.00;0.00;;;;;;;11.17;86.96;95741.50;4365715;32;20196;-59
2023/01/05 06:50:51;;;;;;;0.60;0.30;;;;;;;11.04;86.89;95769.50;4362532;32;20208;-59
2023/01/05 06:53:17;;;;;;;0.00;0.00;;;;;;;11.14;87.05;95766.75;4369661;32;20211;-59
2023/01/05 06:55:43;;;;;;;0.00;0.00;;;;;;;11.04;87.58;95766.84;4361117;32;20189;-60
2023/01/05 06:58:09;;;;;;;0.53;0.47;;;;;;;11.15;87.05;95765.66;4375350;32;20189;-59
2023/01/05 07:00:34;;;;;;;0.00;0.00;;;;;;;11.01;87.81;95778.84;4374099;32;20181;-60
2023/01/05 07:02:59;;;;;;;0.10;0.10;;;;;;;10.99;87.71;95783.66;4370447;32;20212;-60
2023/01/05 07:05:25;;;;;;;0.00;0.00;;;;;;;11.04;87.59;95772.16;4371571;32;20211;-59
2023/01/05 07:07:50;;;;;;;0.00;0.00;;;;;;;10.99;87.56;95781.00;4369111;32;20192;-59
2023/01/05 07:10:15;;;;;;;0.00;0.00;;;;;;;11.04;87.58;95772.16;4372765;32;20246;-59
2023/01/05 07:12:41;;;;;;;0.00;0.00;;;;;;;11.13;87.55;95773.13;4369417;32;20237;-59
2023/01/05 07:15:07;;;;;;;0.10;0.10;;;;;;;11.05;87.68;95788.88;4356317;32;20193;-59
2023/01/05 07:17:33;;;;;;;0.00;0.00;;;;;;;11.05;87.96;95773.75;4360759;32;20211;-59
2023/01/05 07:19:58;;;;;;;0.00;0.00;;;;;;;11.04;87.97;95780.13;4356982;32;20189;-59
2023/01/05 07:22:24;;;;;;;9.63;0.20;;;;;;;11.11;88.20;95774.47;4352276;32;20244;-60
2023/01/05 07:24:49;;;;;;;0.00;0.00;;;;;;;11.05;88.57;95779.06;4360405;32;20312;-59
2023/01/05 07:27:14;;;;;;;0.10;0.10;;;;;;;11.04;88.10;95774.81;4360579;32;20185;-59
2023/01/05 07:29:39;;;;;;;0.87;0.23;;;;;;;11.08;88.42;95783.81;4358567;32;20186;-59
2023/01/05 07:32:05;;;;;;;0.00;0.00;;;;;;;11.01;88.43;95781.50;4367787;32;20199;-59
2023/01/05 07:34:31;;;;;;;0.03;0.03;;;;;;;11.02;88.48;95798.22;4361699;32;20201;-59
2023/01/05 07:36:56;;;;;;;0.00;0.00;;;;;;;11.13;87.99;95790.94;4368870;32;20193;-59
2023/01/05 07:39:24;;;;;;;0.00;0.00;;;;;;;11.12;87.75;95799.97;4367624;32;20274;-59
2023/01/05 07:41:49;;;;;;;0.00;0.00;;;;;;;11.00;88.53;95795.88;4359513;32;20196;-60
2023/01/05 07:44:15;;;;;;;0.00;0.00;;;;;;;11.12;87.81;95806.06;4359472;32;20227;-59
2023/01/05 07:46:40;;;;;;;0.00;0.00;;;;;;;11.17;87.33;95802.56;4374440;32;20193;-59
2023/01/05 07:49:05;;;;;;;0.10;0.10;;;;;;;11.13;87.45;95809.50;4370795;32;20184;-61
2023/01/05 07:51:31;;;;;;;0.10;0.10;;;;;;;11.17;87.27;95807.88;4355251;32;20189;-48
2023/01/05 07:53:56;;;;;;;0.43;0.43;;;;;;;12.65;100.00;95805.38;4354889;32;20247;-49
2023/01/05 07:56:21;;;;;;;0.40;0.30;;;;;;;13.80;97.54;95812.41;4352043;32;20256;-47
2023/01/05 07:58:47;;;;;;;0.00;0.00;;;;;;;14.42;86.86;95819.47;4360155;32;20207;-49
2023/01/05 08:01:13;;;;;;;0.00;0.00;;;;;;;14.47;77.99;95825.78;4368558;32;20189;-45
2023/01/05 08:03:39;;;;;;;0.10;0.10;;;;;;;14.30;79.58;95829.91;4365193;32;20189;-48
2023/01/05 08:06:13;;;;;;;0.10;0.10;;;;;;;13.86;78.78;95828.00;4362886;32;20204;-51
2023/01/05 08:08:38;;;;;;;0.20;0.20;;;;;;;13.56;78.33;95834.78;4358546;32;20188;-50
2023/01/05 08:11:05;;;;;;;0.30;0.30;;;;;;;13.29;79.57;95832.94;4360127;32;20192;-47
2023/01/05 08:16:16;;;;;;;2.30;0.33;;;;;;;13.45;80.38;95830.75;4354626;32;20215;-46
2023/01/05 08:18:42;;;;;;;0.10;0.10;;;;;;;13.48;80.14;95843.50;4363786;32;20244;-45
2023/01/05 08:21:08;;;;;;;0.07;0.00;;;;;;;13.30;79.73;95852.41;4364057;32;20231;-47
2023/01/05 08:23:35;;;;;;;0.00;0.00;;;;;;;13.58;83.15;95843.25;4362687;32;20244;-47
2023/01/05 08:26:10;;;;;;;0.20;0.10;;;;;;;13.50;81.92;95853.84;4363747;32;20188;-49
2023/01/05 08:28:36;;;;;;;0.00;0.00;;;;;;;13.40;79.69;95868.97;4365309;32;20207;-46
2023/01/05 08:31:04;;;;;;;0.00;0.00;;;;;;;13.43;81.24;95864.91;4372198;32;20196;-47
2023/01/05 08:33:30;;;;;;;0.00;0.00;;;;;;;13.31;80.49;95859.28;4355654;32;20276;-49
2023/01/05 08:35:55;;;;;;;0.00;0.00;;;;;;;13.08;80.82;95877.81;4355728;32;20244;-49
2023/01/05 08:38:24;;;;;;;0.00;0.00;;;;;;;13.05;81.42;95867.75;4359708;32;20238;-50
2023/01/05 08:40:51;;;;;;;0.00;0.00;;;;;;;13.33;81.71;95867.75;4356800;32;20189;-49
2023/01/05 08:43:17;;;;;;;0.07;0.07;;;;;;;13.45;80.11;95869.94;4354073;32;20194;-46
2023/01/05 08:45:48;;;;;;;0.20;0.20;;;;;;;13.65;80.49;95885.53;4357840;32;20232;-48
2023/01/05 08:48:14;;;;;;;0.47;0.17;;;;;;;13.44;81.76;95876.38;4355747;32;20228;-48
2023/01/05 08:50:39;;;;;;;0.00;0.00;;;;;;;13.48;81.53;95882.69;4352019;32;20231;-49
2023/01/05 08:53:04;;;;;;;0.00;0.00;;;;;;;13.48;81.95;95877.34;4363912;32;20196;-48
2023/01/05 08:55:30;;;;;;;0.00;0.00;;;;;;;13.44;82.64;95877.16;4359816;32;20208;-49
2023/01/05 08:57:55;;;;;;;0.10;0.10;;;;;;;13.51;83.00;95890.09;4366303;32;20200;-50
2023/01/05 09:00:21;;;;;;;0.00;0.00;;;;;;;13.71;83.09;95885.13;4363109;32;20196;-50
2023/01/05 09:02:47;;;;;;;0.00;0.00;;;;;;;13.67;81.41;95889.47;4362168;32;20268;-60
2023/01/05 09:05:12;;;;;;;0.00;0.00;;;;;;;13.99;81.46;95888.50;4350530;32;20201;-60
2023/01/05 09:07:38;;;;;;;0.10;0.10;;;;;;;13.38;79.67;95891.66;4355841;32;20212;-60
2023/01/05 09:10:06;;;;;;;0.00;0.00;;;;;;;12.91;81.15;95903.41;4366625;32;20207;-60
2023/01/05 09:12:36;;;;;;;0.00;0.00;;;;;;;12.70;81.77;95898.44;4349662;32;20197;-59
2023/01/05 09:15:01;;;;;;;0.00;0.00;;;;;;;12.46;82.75;95903.13;4357154;32;20182;-60
2023/01/05 09:17:27;;;;;;;0.10;0.10;;;;;;;12.33;83.48;95894.00;4362752;32;20184;-59
2023/01/05 09:19:52;;;;;;;0.20;0.20;;;;;;;12.25;83.34;95901.84;4365744;32;20193;-59
2023/01/05 09:22:18;;;;;;;0.00;0.00;;;;;;;12.16;83.44;95908.87;4364580;32;20196;-58
2023/01/05 09:24:43;;;;;;;0.00;0.00;;;;;;;12.11;83.49;95911.62;4367370;32;20211;-59
2023/01/05 09:27:08;;;;;;;0.00;0.00;;;;;;;12.07;83.57;95938.00;4367026;32;20204;-59
2023/01/05 09:29:34;;;;;;;0.10;0.10;;;;;;;12.05;83.30;95914.34;4356687;32;20221;-58
2023/01/05 09:31:59;;;;;;;0.00;0.00;;;;;;;12.04;83.86;95927.94;4361056;32;20215;-59
2023/01/05 09:34:25;;;;;;;0.00;0.00;;;;;;;12.16;83.38;95928.31;4361261;32;20185;-58
2023/01/05 09:36:50;;;;;;;0.00;0.00;;;;;;;12.17;82.80;95921.09;4356290;32;20189;-59
2023/01/05 09:39:15;;;;;;;0.00;0.00;;;;;;;12.31;83.00;95928.06;4356228;32;20185;-59
2023/01/05 09:41:45;;;;;;;0.00;0.00;;;;;;;12.26;82.33;95917.50;4362469;32;20285;-59
2023/01/05 09:44:30;;;;;;;0.10;0.10;;;;;;;12.23;81.67;95930.59;4357121;32;20216;-59
2023/01/05 09:47:01;;;;;;;0.00;0.00;;;;;;;12.21;82.34;95922.91;4355539;32;20203;-59
2023/01/05 09:49:28;;;;;;;0.10;0.10;;;;;;;12.27;81.50;95913.75;4361374;32;20219;-59
2023/01/05 09:51:58;;;;;;;0.20;0.10;;;;;;;12.36;80.39;95920.03;4359872;32;20251;-58
2023/01/05 09:54:26;;;;;;;0.00;0.00;;;;;;;12.52;80.06;95917.13;4375975;32;20197;-58
2023/01/05 09:56:53;;;;;;;0.00;0.00;;;;;;;12.43;80.17;95921.53;4361831;32;20202;-58
2023/01/05 09:59:29;;;;;;;0.00;0.00;;;;;;;12.33;79.51;95930.44;4358877;32;20289;-59
2023/01/05 10:01:59;;;;;;;0.00;0.00;;;;;;;12.46;79.83;95934.25;4382629;32;20228;-59
2023/01/05 10:04:27;;;;;;;0.00;0.00;;;;;;;12.50;80.98;95927.25;4371402;32;20227;-59
2023/01/05 10:07:00;;;;;;;0.10;0.10;;;;;;;12.39;79.15;95924.75;4361065;32;20202;-59
2023/01/05 10:09:32;;;;;;;0.10;0.10;;;;;;;12.32;80.46;95926.19;4357064;32;20192;-58
2023/01/05 10:15:13;;;;;;;0.00;0.00;;;;;;;12.37;79.53;95926.94;4359309;32;20208;-58
2023/01/05 10:17:39;;;;;;;0.00;0.00;;;;;;;12.42;78.96;95931.37;4358225;32;20240;-59
2023/01/05 10:20:16;;;;;;;0.10;0.10;;;;;;;12.57;78.65;95944.44;4376823;32;20303;-59
2023/01/05 10:23:23;;;;;;;0.00;0.00;;;;;;;12.51;77.90;95939.47;4363057;32;20278;-59
2023/01/05 10:25:57;;;;;;;0.17;0.17;;;;;;;12.60;77.95;95935.09;4350514;32;20185;-59
2023/01/05 10:29:07;;;;;;;0.00;0.00;;;;;;;12.51;78.04;95955.44;4363124;32;20193;-59
2023/01/05 10:31:42;;;;;;;0.10;0.10;;;;;;;12.64;78.16;95952.06;4346936;32;20259;-59
2023/01/05 10:34:20;;;;;;;0.73;0.20;;;;;;;12.61;77.07;95952.66;4357543;32;20219;-59
2023/01/05 10:37:03;;;;;;;0.00;0.00;;;;;;;12.45;77.36;95949.44;4357279;32;20193;-59
2023/01/05 10:39:44;;;;;;;0.10;0.10;;;;;;;12.47;77.76;95951.81;4361813;32;20207;-59
2023/01/05 10:42:24;;;;;;;0.00;0.00;;;;;;;12.76;76.31;95954.28;4369492;32;20192;-59
2023/01/05 10:45:02;;;;;;;0.20;0.20;;;;;;;12.66;76.20;95960.56;4362015;32;20193;-58
2023/01/05 10:47:30;;;;;;;0.10;0.10;;;;;;;12.67;76.29;95959.47;4372103;32;20200;-59
2023/01/05 10:49:57;;;;;;;0.10;0.10;;;;;;;12.96;75.49;95960.06;4361916;32;20194;-59
2023/01/05 10:52:22;;;;;;;0.00;0.00;;;;;;;12.87;75.51;95956.50;4373851;32;20236;-59
2023/01/05 10:54:53;;;;;;;0.10;0.10;;;;;;;13.04;75.37;95958.59;4357308;32;20208;-58
2023/01/05 10:57:27;;;;;;;0.00;0.00;;;;;;;13.05;76.85;95963.63;4364749;32;20189;-58
2023/01/05 10:59:55;;;;;;;0.00;0.00;;;;;;;13.03;74.60;95963.13;4358673;32;20188;-58
2023/01/05 11:02:26;;;;;;;0.07;0.07;;;;;;;12.93;75.16;95960.63;4357261;32;20212;-59
2023/01/05 11:04:52;;;;;;;0.20;0.20;;;;;;;12.96;76.28;95949.41;4362605;32;20220;-58
2023/01/05 11:07:18;;;;;;;0.00;0.00;;;;;;;12.84;74.32;95959.72;4359121;32;20206;-59
2023/01/05 11:09:46;;;;;;;0.00;0.00;;;;;;;12.87;74.37;95956.50;4364453;32;20315;-59
2023/01/05 11:12:21;;;;;;;0.00;0.00;;;;;;;12.81;75.17;95962.97;4354089;32;20208;-60
2023/01/05 11:14:51;;;;;;;0.00;0.00;;;;;;;12.67;75.67;95952.28;4356868;32;23800;-60
2023/01/05 11:17:21;;;;;;;0.23;0.23;;;;;;;12.71;75.91;95957.81;4370099;32;20189;-59
2023/01/05 11:19:50;;;;;;;0.00;0.00;;;;;;;12.81;75.66;95947.00;4357739;32;20193;-60
2023/01/05 11:22:36;;;;;;;0.03;0.00;;;;;;;12.91;75.43;95952.13;4354740;32;20193;-59
2023/01/05 11:25:21;;;;;;;0.00;0.00;;;;;;;12.95;75.19;95936.38;4363551;32;20266;-60
2023/01/05 11:28:10;;;;;;;0.93;0.40;;;;;;;12.87;75.16;95945.84;4365615;32;20196;-59
2023/01/05 11:30:40;;;;;;;0.10;0.10;;;;;;;12.67;75.82;95962.16;4363110;32;20184;-59
2023/01/05 11:33:20;;;;;;;0.10;0.10;;;;;;;12.72;77.38;95940.75;4361471;32;20197;-59
2023/01/05 11:35:46;;;;;;;0.00;0.00;;;;;;;12.54;80.36;95957.53;4360392;32;20204;-59
2023/01/05 11:38:41;;;;;;;0.03;0.03;;;;;;;12.42;81.87;95959.88;4346243;32;20254;-59
2023/01/05 11:41:11;;;;;;;0.00;0.00;;;;;;;11.97;87.62;95962.06;4354084;32;20193;-58
2023/01/05 11:43:37;;;;;;;0.10;0.10;;;;;;;12.05;90.40;95958.78;4349669;32;20208;-60
2023/01/05 11:46:04;;;;;;;0.27;0.27;;;;;;;11.99;91.66;95946.63;4359060;32;20244;-59
2023/01/05 11:48:33;;;;;;;0.23;0.23;;;;;;;12.08;91.04;95952.06;4356391;32;20240;-60
2023/01/05 11:50:58;;;;;;;0.00;0.00;;;;;;;11.95;90.48;95953.59;4362458;32;20197;-59
2023/01/05 11:53:34;;;;;;;0.00;0.00;;;;;;;11.94;90.13;95954.66;4354568;32;20192;-59
2023/01/05 11:56:23;;;;;;;0.00;0.00;;;;;;;11.99;90.47;95943.97;4355257;32;20207;-59
2023/01/05 11:58:53;;;;;;;0.00;0.00;;;;;;;12.00;89.77;95953.53;4358901;32;20207;-59
2023/01/05 12:01:47;;;;;;;0.00;0.00;;;;;;;11.92;89.55;95946.19;4373809;32;20197;-59
2023/01/05 12:04:33;;;;;;;0.13;0.13;;;;;;;11.97;90.30;95948.78;4367938;32;20262;-59
2023/01/05 12:07:02;;;;;;;0.07;0.07;;;;;;;11.95;91.12;95954.37;4355164;32;20236;-59
2023/01/05 12:09:32;;;;;;;0.00;0.00;;;;;;;12.20;89.65;95934.62;4369307;32;20244;-66
2023/01/05 12:12:22;;;;;;;0.20;0.20;;;;;;;12.30;89.22;95941.66;4355786;32;20196;-65
2023/01/05 12:15:09;;;;;;;0.00;0.00;;;;;;;12.31;89.65;95943.25;4357764;32;20347;-59
2023/01/05 12:18:00;;;;;;;0.00;0.00;;;;;;;12.20;88.84;95933.84;4355981;32;20217;-60
2023/01/05 12:20:25;;;;;;;0.17;0.17;;;;;;;12.06;88.58;95936.41;4376567;32;20248;-61